createdAt,value
2018-09-03T10:19:49.568Z,85.27
2018-09-03T10:20:49.614Z,84.89
2018-09-03T10:21:49.527Z,84.98
2018-09-03T10:22:49.511Z,86.04
2018-09-03T10:23:49.495Z,85.75
2018-09-03T10:24:49.489Z,86.96
2018-09-03T10:25:49.481Z,86.91
2018-09-03T10:26:49.453Z,85.27
2018-09-03T10:27:49.441Z,84.79
2018-09-03T10:28:49.485Z,85.56
2018-09-03T10:29:49.422Z,85.08
2018-09-03T10:30:49.412Z,84.94
2018-09-03T10:31:49.423Z,86.82
2018-09-03T10:32:49.396Z,86.24
2018-09-03T10:33:49.363Z,84.89
2018-09-03T10:34:49.371Z,88.17
2018-09-03T10:35:49.353Z,85.75
2018-09-03T10:36:49.321Z,86.33
2018-09-03T10:37:49.308Z,85.56
2018-09-03T10:38:49.315Z,84.94
2018-09-03T10:39:49.299Z,88.26
2018-09-03T10:40:49.304Z,85.71
2018-09-03T10:41:49.264Z,87.40
2018-09-03T10:42:49.246Z,88.89
2018-09-03T10:43:49.252Z,89.23
2018-09-03T10:44:49.220Z,90.82
2018-09-03T10:45:49.238Z,89.43
2018-09-03T10:46:49.219Z,89.23
2018-09-03T10:47:49.183Z,89.23
2018-09-03T10:48:49.172Z,89.91
2018-09-03T10:49:49.190Z,88.65
2018-09-03T10:50:49.168Z,90.78
2018-09-03T10:51:49.157Z,88.99
2018-09-03T10:52:49.120Z,87.16
2018-09-03T10:53:49.129Z,86.33
2018-09-03T10:54:49.099Z,85.56
2018-09-03T10:55:49.123Z,84.89
2018-09-03T10:56:49.640Z,84.31
2018-09-03T10:57:49.058Z,84.11
2018-09-03T10:58:49.044Z,84.21
2018-09-03T10:59:49.052Z,85.13
2018-09-03T11:00:49.030Z,86.54
2018-09-03T11:01:49.021Z,88.17
2018-09-03T11:02:48.994Z,88.37
2018-09-03T11:03:48.982Z,87.88
2018-09-03T11:04:48.979Z,89.43
2018-09-03T11:05:49.020Z,88.70
2018-09-03T11:06:48.970Z,88.02
2018-09-03T11:07:48.931Z,86.68
2018-09-03T11:08:48.951Z,87.93
2018-09-03T11:09:48.904Z,86.77
2018-09-03T11:10:58.757Z,86.48
2018-09-03T11:11:48.880Z,85.71
2018-09-03T11:12:48.885Z,84.79
2018-09-03T11:13:48.883Z,84.59
2018-09-03T11:14:48.868Z,84.50
2018-09-03T11:15:48.842Z,85.08
2018-09-03T11:16:48.882Z,85.75
2018-09-03T11:17:48.819Z,85.75
2018-09-03T11:18:48.792Z,85.46
2018-09-03T11:19:48.788Z,84.21
2018-09-03T11:20:48.774Z,85.27
2018-09-03T11:21:48.779Z,87.10
2018-09-03T11:22:48.760Z,86.14
2018-09-03T11:23:48.746Z,85.60
2018-09-03T11:24:48.735Z,84.89
2018-09-03T11:25:48.705Z,83.83
2018-09-03T11:26:48.710Z,84.93
2018-09-03T11:27:48.708Z,85.89
2018-09-03T11:28:48.743Z,82.51
2018-09-03T11:29:48.661Z,82.07
2018-09-03T11:30:48.644Z,81.49
2018-09-03T11:31:48.637Z,80.91
2018-09-03T11:32:48.632Z,81.05
2018-09-03T11:33:48.612Z,80.18
2018-09-03T11:34:48.626Z,80.08
2018-09-03T11:35:48.589Z,79.22
2018-09-03T11:36:48.574Z,77.80
2018-09-03T11:37:48.598Z,79.06
2018-09-03T11:38:48.564Z,77.51
2018-09-03T11:39:48.546Z,78.64
2018-09-03T11:40:48.693Z,78.64
2018-09-03T11:41:48.519Z,78.15
2018-09-03T11:42:48.520Z,76.39
2018-09-03T11:43:48.504Z,74.98
2018-09-03T11:44:48.510Z,74.92
2018-09-03T11:45:48.483Z,74.49
2018-09-03T11:46:48.461Z,74.81
2018-09-03T11:47:48.450Z,75.68
2018-09-03T11:48:48.456Z,77.45
2018-09-03T11:49:48.427Z,75.81
2018-09-03T11:50:48.413Z,76.16
2018-09-03T11:51:48.404Z,77.45
2018-09-03T11:52:48.396Z,78.91
2018-09-03T11:53:48.394Z,76.84
2018-09-03T11:54:48.373Z,77.92
2018-09-03T11:55:48.360Z,80.47
2018-09-03T11:56:48.352Z,80.18
2018-09-03T11:57:48.337Z,79.50
2018-09-03T11:58:48.343Z,78.73
2018-09-03T11:59:48.327Z,79.60
2018-09-03T12:00:48.305Z,78.59
2018-09-03T12:01:48.295Z,79.17
2018-09-03T12:02:48.283Z,80.95
2018-09-03T12:03:48.282Z,80.86
2018-09-03T12:04:48.284Z,80.08
2018-09-03T12:05:48.249Z,78.89
2018-09-03T12:06:48.277Z,79.31
2018-09-03T12:07:48.225Z,77.86
2018-09-03T12:08:48.215Z,79.22
2018-09-03T12:09:48.208Z,78.54
2018-09-03T12:10:48.199Z,78.67
2018-09-03T12:11:48.184Z,78.03
2018-09-03T12:12:48.170Z,78.00
2018-09-03T12:13:48.159Z,76.84
2018-09-03T12:14:48.148Z,78.48
2018-09-03T12:15:48.750Z,78.48
2018-09-03T12:16:48.164Z,77.61
2018-09-03T12:17:48.116Z,76.20
2018-09-03T12:18:48.106Z,74.79
2018-09-03T12:19:48.100Z,75.07
2018-09-03T12:20:48.113Z,76.24
2018-09-03T12:21:48.075Z,74.79
2018-09-03T12:22:48.062Z,74.92
2018-09-03T12:23:48.084Z,74.49
2018-09-03T12:24:48.038Z,74.36
2018-09-03T12:25:48.038Z,76.01
2018-09-03T12:26:48.014Z,76.78
2018-09-03T12:27:48.005Z,77.32
2018-09-03T12:28:47.998Z,76.78
2018-09-03T12:29:47.984Z,75.52
2018-09-03T12:30:47.994Z,76.29
2018-09-03T12:31:47.962Z,77.36
2018-09-03T12:32:47.950Z,76.20
2018-09-03T12:33:47.949Z,75.56
2018-09-03T12:34:47.928Z,75.37
2018-09-03T12:35:47.920Z,74.98
2018-09-03T12:36:47.934Z,74.59
2018-09-03T12:37:47.904Z,76.43
2018-09-03T12:38:47.887Z,74.46
2018-09-03T12:39:47.873Z,76.59
2018-09-03T12:40:47.864Z,77.22
2018-09-03T12:41:47.856Z,78.54
2018-09-03T12:42:47.927Z,80.18
2018-09-03T12:43:47.829Z,79.80
2018-09-03T12:44:47.826Z,78.92
2018-09-03T12:45:47.807Z,80.47
2018-09-03T12:46:47.798Z,80.76
2018-09-03T12:47:47.800Z,81.11
2018-09-03T12:48:47.774Z,82.69
2018-09-03T12:49:47.764Z,86.75
2018-09-03T12:50:47.753Z,82.98
2018-09-03T12:51:47.745Z,85.49
2018-09-03T12:52:47.751Z,88.97
2018-09-03T12:53:47.723Z,85.21
2018-09-03T12:54:47.713Z,82.60
2018-09-03T12:55:47.696Z,83.66
2018-09-03T12:56:47.710Z,86.21
2018-09-03T12:57:47.682Z,85.30
2018-09-03T12:58:47.704Z,82.69
2018-09-03T12:59:47.652Z,86.52
2018-09-03T13:00:47.649Z,90.28
2018-09-03T13:01:47.631Z,90.77
2018-09-03T13:02:47.646Z,88.45
2018-09-03T13:03:47.606Z,86.08
2018-09-03T13:04:47.592Z,89.79
2018-09-03T13:05:47.589Z,89.95
2018-09-03T13:06:47.572Z,85.22
2018-09-03T13:07:47.574Z,88.02
2018-09-03T13:08:47.550Z,90.43
2018-09-03T13:09:47.537Z,88.98
2018-09-03T13:10:47.523Z,88.98
2018-09-03T13:11:47.519Z,88.89
2018-09-03T13:12:47.545Z,88.84
2018-09-03T13:13:47.490Z,87.30
2018-09-03T13:14:47.480Z,88.36
2018-09-03T13:15:47.469Z,88.59
2018-09-03T13:16:47.456Z,87.97
2018-09-03T13:17:47.459Z,89.32
2018-09-03T13:18:47.439Z,87.88
2018-09-03T13:19:47.430Z,88.93
2018-09-03T13:20:47.407Z,87.49
2018-09-03T13:21:47.399Z,87.64
2018-09-03T13:22:47.399Z,88.22
2018-09-03T13:23:47.371Z,91.20
2018-09-03T13:24:47.420Z,90.19
2018-09-03T13:25:47.349Z,89.86
2018-09-03T13:26:47.334Z,89.28
2018-09-03T13:27:47.331Z,88.51
2018-09-03T13:28:47.311Z,88.84
2018-09-03T13:29:47.300Z,89.47
2018-09-03T13:30:47.317Z,86.82
2018-09-03T13:31:47.271Z,87.30
2018-09-03T13:32:47.276Z,86.47
2018-09-03T13:33:47.250Z,85.41
2018-09-03T13:34:47.237Z,85.02
2018-09-03T13:35:47.223Z,85.50
2018-09-03T13:36:47.213Z,85.99
2018-09-03T13:37:47.211Z,85.60
2018-09-03T13:38:47.190Z,86.18
2018-09-03T13:39:47.180Z,86.57
2018-09-03T13:40:47.165Z,86.38
2018-09-03T13:41:47.150Z,85.75
2018-09-03T13:42:47.149Z,85.94
2018-09-03T13:43:47.125Z,86.66
2018-09-03T13:44:47.113Z,87.01
2018-09-03T13:45:47.102Z,86.82
2018-09-03T13:46:47.089Z,86.72
2018-09-03T13:47:47.084Z,86.91
2018-09-03T13:48:47.062Z,87.20
2018-09-03T13:49:47.051Z,88.93
2018-09-03T13:50:47.803Z,88.65
2018-09-03T13:51:47.023Z,88.84
2018-09-03T13:52:47.027Z,88.36
2018-09-03T13:53:47.000Z,88.89
2018-09-03T13:54:47.005Z,89.09
2018-09-03T13:55:46.974Z,89.57
2018-09-03T13:56:47.008Z,88.45
2018-09-03T13:57:46.966Z,88.89
2018-09-03T13:58:46.936Z,87.93
2018-09-03T13:59:46.924Z,88.79
2018-09-03T14:00:46.910Z,89.37
2018-09-03T14:01:46.898Z,88.79
2018-09-03T14:02:46.884Z,89.28
2018-09-03T14:03:46.886Z,88.79
2018-09-03T14:04:46.866Z,88.75
2018-09-03T14:05:46.849Z,89.51
2018-09-03T14:06:46.844Z,87.59
2018-09-03T14:07:46.855Z,88.26
2018-09-03T14:08:46.822Z,87.78
2018-09-03T14:09:46.842Z,87.10
2018-09-03T14:10:46.790Z,89.03
2018-09-03T14:11:46.783Z,87.40
2018-09-03T14:12:46.761Z,88.36
